Hauptseite
METAR-TAF:

METAR-TAF

Flughäfen :

Flughafen Jekaterinburg

Jekaterinburg, Russland

Breite: 56-50N, Länge: 060-38E, Höhe: 237 m

Beobachtung

Neuester Wetterbericht von vor 38 Minuten, um 13:00 UTC
Wind 8 kt aus Südost
Temperatur 17°C
Luftfeuchtigkeit 52%
Luftdruck 998 hPa
Sichtweite 10 km oder mehr
keine Wolken unter 1500 m und keine Kumulonimbus oder Gewitterwolken

METAR: USSS 191300Z 13004MPS CAVOK 17/07 Q0998 R08R/010060 R08L/010060 NOSIG RMK QFE729/0972

Zeit: 18:38 (13:38 UTC)

Prognose

Neuester Wetterbericht von vor 2 Stunden und 42 Minuten, um 10:56 UTC
Gültige Prognose vom 19 um 12 UTC bis 20 um 12 UTC
Wind 10 kt aus Süd/Südost, Böen bis zu 29 kt
Sichtweite 10 km oder mehr
Aufgelockert bewölkt in der Höhe von 2000 ft, Kumulonimbus.
Übergehend zu
vom 19 um 16 UTC bis 19 um 18 UTC
Wind 6 kt aus Süd, Böen bis zu 16 kt

TAF: USSS 191056Z 1912/2012 15005G15MPS 9999 SCT020CB BECMG 1916/1918 18003G08MPS

Wetterbeobachtungen und Prognosen von mehr als 4000 Flughäfen (METAR und TAF Bericht).

Die verfügbaren Stationen werden durch gelbe und rote Markierungen auf der Karte dargestellt.

Führen Sie die Maus auf sie, um den Namen der Station zu sehen.

Darauf klicken, um die Beobachtung von Wetterbeobachtungen und Prognosen zu sehen.

Um die Karte zu ändern : klicken Sie auf den grünen Tasten mit einem schwarzen Kreuz Zum Vergrößern, auf den grünen Button mit einem Gedankenstrich zu verkleinern, oder auf die grünen Pfeile für benachbarte Karten.


METAR-TAF: